createdAt,value
2024-04-30T00:00:27.138Z,99.90
2024-04-30T00:02:54.238Z,99.90
2024-04-30T00:05:21.327Z,99.90
2024-04-30T00:07:48.561Z,99.90
2024-04-30T00:10:15.755Z,99.90
2024-04-30T00:12:42.822Z,99.90
2024-04-30T00:15:10.009Z,99.90
2024-04-30T00:17:37.137Z,99.90
2024-04-30T00:20:04.861Z,99.90
2024-04-30T00:22:32.052Z,99.90
2024-04-30T00:24:59.218Z,99.90
2024-04-30T00:27:26.308Z,99.90
2024-04-30T00:29:53.414Z,99.90
2024-04-30T00:32:20.530Z,99.90
2024-04-30T00:34:47.586Z,99.90
2024-04-30T00:37:14.686Z,99.90
2024-04-30T00:39:41.726Z,99.90
2024-04-30T00:42:08.904Z,99.90
2024-04-30T00:44:35.983Z,99.90
2024-04-30T00:47:03.387Z,99.90
2024-04-30T00:49:31.187Z,99.90
2024-04-30T00:51:58.552Z,99.90
2024-04-30T00:54:27.313Z,99.90
2024-04-30T00:56:56.460Z,99.90
2024-04-30T00:59:23.670Z,99.90
2024-04-30T01:01:50.821Z,99.90
2024-04-30T01:04:17.973Z,99.90
2024-04-30T01:06:45.100Z,99.90
2024-04-30T01:09:12.247Z,99.90
2024-04-30T01:11:39.508Z,99.90
2024-04-30T01:14:06.710Z,99.90
2024-04-30T01:16:33.970Z,99.90
2024-04-30T01:19:01.090Z,99.90
2024-04-30T01:21:28.283Z,99.90
2024-04-30T01:23:55.384Z,99.90
2024-04-30T01:26:22.431Z,99.90
2024-04-30T01:28:49.471Z,99.90
2024-04-30T01:31:16.598Z,99.90
2024-04-30T01:33:43.682Z,99.90
2024-04-30T01:36:10.845Z,99.90
2024-04-30T01:38:37.953Z,99.90
2024-04-30T01:41:05.063Z,99.90
2024-04-30T01:43:32.268Z,99.90
2024-04-30T01:45:59.495Z,99.90
2024-04-30T01:48:26.828Z,99.90
2024-04-30T01:50:54.050Z,99.90
2024-04-30T01:53:21.182Z,99.90
2024-04-30T01:55:48.361Z,99.90
2024-04-30T01:58:15.538Z,99.90
2024-04-30T02:00:42.666Z,99.90
2024-04-30T02:03:09.817Z,99.90
2024-04-30T02:05:36.871Z,99.90
2024-04-30T02:08:04.197Z,99.90
2024-04-30T02:10:31.505Z,99.90
2024-04-30T02:12:58.682Z,99.90
2024-04-30T02:15:25.822Z,99.90
2024-04-30T02:17:53.014Z,99.90
2024-04-30T02:20:20.368Z,99.90
2024-04-30T02:22:47.469Z,99.90
2024-04-30T02:25:14.767Z,99.90
2024-04-30T02:27:42.258Z,99.90
2024-04-30T02:30:17.842Z,99.90
2024-04-30T02:33:03.425Z,99.90
2024-04-30T02:35:30.637Z,99.90
2024-04-30T02:37:57.687Z,99.90
2024-04-30T02:40:24.753Z,99.90
2024-04-30T02:42:51.821Z,99.90
2024-04-30T02:45:18.941Z,99.90
2024-04-30T02:47:46.098Z,99.90
2024-04-30T02:50:13.236Z,99.90
2024-04-30T02:52:40.388Z,99.90
2024-04-30T02:55:07.650Z,99.90
2024-04-30T02:57:34.738Z,99.90
2024-04-30T03:00:01.890Z,99.90
2024-04-30T03:02:29.063Z,99.90
2024-04-30T03:04:56.112Z,99.90
2024-04-30T03:07:23.197Z,99.90
2024-04-30T03:09:51.150Z,99.90
2024-04-30T03:12:18.186Z,99.90
2024-04-30T03:14:45.246Z,99.90
2024-04-30T03:17:13.216Z,99.90
2024-04-30T03:19:41.086Z,99.90
2024-04-30T03:22:08.298Z,99.90
2024-04-30T03:24:35.475Z,99.90
2024-04-30T03:27:02.558Z,99.90
2024-04-30T03:29:29.747Z,99.90
2024-04-30T03:31:56.821Z,99.90
2024-04-30T03:34:24.015Z,99.90
2024-04-30T03:36:51.154Z,99.90
2024-04-30T03:39:18.220Z,99.90
2024-04-30T03:41:45.343Z,99.90
2024-04-30T03:44:12.515Z,99.90
2024-04-30T03:46:39.592Z,99.90
2024-04-30T03:49:06.716Z,99.90
2024-04-30T03:51:33.801Z,99.90
2024-04-30T03:54:00.947Z,99.90
2024-04-30T03:56:28.089Z,99.90
2024-04-30T03:58:55.206Z,99.90
2024-04-30T04:01:22.314Z,99.90
2024-04-30T04:03:49.445Z,99.90
2024-04-30T04:06:17.776Z,99.90
2024-04-30T04:08:45.157Z,99.90
2024-04-30T04:11:30.659Z,99.90
2024-04-30T04:14:16.243Z,99.90
2024-04-30T04:16:43.352Z,99.90
2024-04-30T04:19:10.650Z,99.90
2024-04-30T04:21:37.775Z,99.90
2024-04-30T04:24:05.164Z,99.90
2024-04-30T04:26:32.420Z,99.90
2024-04-30T04:28:59.508Z,99.90
2024-04-30T04:31:26.723Z,99.90
2024-04-30T04:33:53.914Z,99.90
2024-04-30T04:36:21.143Z,99.90
2024-04-30T04:38:48.235Z,99.90
2024-04-30T04:41:15.386Z,99.90
2024-04-30T04:43:42.547Z,99.90
2024-04-30T04:46:09.694Z,99.90
2024-04-30T04:48:36.897Z,99.90
2024-04-30T04:51:05.855Z,99.90
2024-04-30T04:53:32.911Z,99.90
2024-04-30T04:55:59.997Z,99.90
2024-04-30T04:58:27.128Z,99.90
2024-04-30T05:00:54.251Z,99.90
2024-04-30T05:03:21.391Z,99.90
2024-04-30T05:05:48.551Z,99.90
2024-04-30T05:08:15.624Z,99.90
2024-04-30T05:10:42.734Z,99.90
2024-04-30T05:13:12.976Z,99.90
2024-04-30T05:15:40.119Z,99.90
2024-04-30T05:18:07.250Z,99.90
2024-04-30T05:20:34.339Z,99.90
2024-04-30T05:23:01.497Z,99.90
2024-04-30T05:25:28.640Z,99.90
2024-04-30T05:27:55.777Z,99.90
2024-04-30T05:30:22.863Z,99.90
2024-04-30T05:32:50.018Z,99.90
2024-04-30T05:35:17.196Z,99.90
2024-04-30T05:37:45.565Z,99.90
2024-04-30T05:40:13.400Z,99.90
2024-04-30T05:42:41.422Z,99.90
2024-04-30T05:45:11.322Z,99.90
2024-04-30T05:47:39.792Z,99.90
2024-04-30T05:50:07.321Z,99.90
2024-04-30T05:52:34.529Z,99.90
2024-04-30T05:55:01.813Z,99.90
2024-04-30T05:57:28.924Z,99.90
2024-04-30T05:59:56.479Z,99.90
2024-04-30T06:02:23.557Z,99.90
2024-04-30T06:04:50.777Z,99.90
2024-04-30T06:07:18.007Z,99.90
2024-04-30T06:09:45.239Z,99.90
2024-04-30T06:12:12.255Z,99.90
2024-04-30T06:14:39.303Z,99.90
2024-04-30T06:17:06.352Z,99.90
2024-04-30T06:19:33.457Z,99.90
2024-04-30T06:22:00.534Z,99.90
2024-04-30T06:24:27.871Z,99.90
2024-04-30T06:26:54.979Z,99.90
2024-04-30T06:29:22.069Z,99.90
2024-04-30T06:31:49.430Z,99.90
2024-04-30T06:34:16.543Z,99.90
2024-04-30T06:36:43.686Z,99.90
2024-04-30T06:39:10.702Z,99.90
2024-04-30T06:41:37.722Z,99.90
2024-04-30T06:44:04.862Z,99.90
2024-04-30T06:46:31.988Z,99.90
2024-04-30T06:48:59.183Z,99.90
2024-04-30T06:51:26.213Z,99.90
2024-04-30T06:53:53.242Z,99.90
2024-04-30T06:56:20.356Z,99.90
2024-04-30T06:58:48.662Z,99.90
2024-04-30T07:01:15.843Z,99.90
2024-04-30T07:03:42.882Z,99.90
2024-04-30T07:06:10.018Z,99.90
2024-04-30T07:08:37.134Z,99.90
2024-04-30T07:11:04.512Z,99.90
2024-04-30T07:13:31.876Z,99.90
2024-04-30T07:15:59.026Z,99.90
2024-04-30T07:18:26.197Z,99.90
2024-04-30T07:20:53.739Z,99.50
2024-04-30T07:23:20.795Z,99.30
2024-04-30T07:25:47.961Z,99.30
2024-04-30T07:28:15.079Z,99.20
2024-04-30T07:30:42.237Z,98.90
2024-04-30T07:33:09.527Z,97.70
2024-04-30T07:35:36.748Z,96.80
2024-04-30T07:38:06.008Z,97.10
2024-04-30T07:40:33.128Z,96.90
2024-04-30T07:43:00.356Z,98.20
2024-04-30T07:45:27.368Z,97.80
2024-04-30T07:47:55.012Z,97.60
2024-04-30T07:50:22.244Z,97.60
2024-04-30T07:52:49.298Z,98.60
2024-04-30T07:55:16.438Z,98.70
2024-04-30T07:57:43.608Z,97.60
2024-04-30T08:00:12.557Z,97.50
2024-04-30T08:02:39.840Z,97.30
2024-04-30T08:05:07.053Z,96.90
2024-04-30T08:07:34.439Z,97.30
2024-04-30T08:10:01.634Z,98.20
2024-04-30T08:12:28.699Z,96.90
2024-04-30T08:14:55.899Z,97.90
2024-04-30T08:17:23.041Z,97.50
2024-04-30T08:19:50.291Z,97.60
2024-04-30T08:22:18.736Z,96.50
2024-04-30T08:24:45.808Z,96.30
2024-04-30T08:27:12.905Z,96.10
2024-04-30T08:29:39.992Z,96.00
2024-04-30T08:32:07.813Z,96.00
2024-04-30T08:34:35.002Z,95.60
2024-04-30T08:37:02.240Z,94.90
2024-04-30T08:39:29.519Z,94.90
2024-04-30T08:41:57.298Z,94.20
2024-04-30T08:44:25.940Z,93.10
2024-04-30T08:46:54.507Z,92.60
2024-04-30T08:49:28.760Z,92.90
2024-04-30T08:52:09.027Z,92.20
2024-04-30T08:54:37.948Z,92.00
2024-04-30T08:57:05.441Z,91.00
2024-04-30T08:59:32.658Z,90.70
2024-04-30T09:02:00.304Z,90.90
2024-04-30T09:04:29.821Z,90.50
2024-04-30T09:06:57.202Z,91.00
2024-04-30T09:09:25.688Z,90.70
2024-04-30T09:11:53.060Z,90.70
2024-04-30T09:14:20.236Z,90.80
2024-04-30T09:16:51.698Z,89.80
2024-04-30T09:19:26.737Z,90.20
2024-04-30T09:22:08.398Z,90.30
2024-04-30T09:24:47.805Z,87.60
2024-04-30T09:27:15.447Z,86.60
2024-04-30T09:29:44.714Z,86.00
2024-04-30T09:32:22.514Z,86.10
2024-04-30T09:34:49.769Z,87.10
2024-04-30T09:37:24.437Z,85.10
2024-04-30T09:39:54.421Z,83.40
2024-04-30T09:42:26.836Z,84.20
2024-04-30T09:44:55.658Z,84.30
2024-04-30T09:47:24.020Z,85.20
2024-04-30T09:49:54.023Z,83.60
2024-04-30T09:52:22.228Z,83.30
2024-04-30T09:54:55.013Z,84.00
2024-04-30T09:57:23.925Z,84.90
2024-04-30T09:59:51.119Z,84.40
2024-04-30T10:02:19.701Z,81.90
2024-04-30T10:04:48.502Z,83.00
2024-04-30T10:07:16.755Z,82.60
2024-04-30T10:09:56.391Z,79.10
2024-04-30T10:12:28.605Z,79.70
2024-04-30T10:14:57.916Z,80.20
2024-04-30T10:17:25.283Z,76.00
2024-04-30T10:19:52.510Z,76.90
2024-04-30T10:22:20.317Z,77.60
2024-04-30T10:24:47.524Z,76.10
2024-04-30T10:27:21.635Z,71.80
2024-04-30T10:29:49.768Z,70.10
2024-04-30T10:32:17.209Z,68.80
2024-04-30T10:34:58.099Z,63.80
2024-04-30T10:37:29.516Z,61.70
2024-04-30T10:39:57.710Z,59.00
2024-04-30T10:42:35.256Z,57.70
2024-04-30T10:45:02.579Z,57.20
2024-04-30T10:47:33.832Z,58.20
2024-04-30T10:50:17.931Z,58.70
2024-04-30T10:52:47.549Z,56.60
2024-04-30T10:55:19.000Z,54.60
2024-04-30T10:57:46.367Z,54.20
2024-04-30T11:00:13.814Z,52.20
2024-04-30T11:02:42.625Z,54.30
2024-04-30T11:05:17.940Z,55.20
2024-04-30T11:07:58.511Z,51.90
2024-04-30T11:10:30.500Z,50.30
2024-04-30T11:13:04.490Z,49.70
2024-04-30T11:15:31.903Z,46.90
2024-04-30T11:17:59.307Z,46.40
2024-04-30T11:20:26.580Z,44.70
2024-04-30T11:22:54.002Z,44.40
2024-04-30T11:25:21.340Z,45.10
2024-04-30T11:27:48.605Z,44.80
2024-04-30T11:30:15.774Z,45.80
2024-04-30T11:32:42.905Z,44.10
2024-04-30T11:35:10.022Z,41.60
2024-04-30T11:37:37.204Z,42.50
2024-04-30T11:40:04.864Z,41.80
2024-04-30T11:42:38.704Z,40.50
2024-04-30T11:45:14.984Z,39.10
2024-04-30T11:47:42.443Z,39.70
2024-04-30T11:50:09.824Z,41.00
2024-04-30T11:52:40.319Z,40.00
2024-04-30T11:55:07.881Z,42.50
2024-04-30T11:57:35.358Z,39.20
2024-04-30T12:00:02.548Z,37.90
2024-04-30T12:02:30.152Z,36.50
2024-04-30T12:04:57.505Z,37.60
2024-04-30T12:07:24.704Z,37.10
2024-04-30T12:09:51.909Z,36.80
2024-04-30T12:12:18.963Z,35.60
2024-04-30T12:14:46.051Z,34.20
2024-04-30T12:17:13.278Z,33.10
2024-04-30T12:19:40.434Z,33.90
2024-04-30T12:22:07.725Z,33.10
2024-04-30T12:24:35.218Z,34.10
2024-04-30T12:27:02.292Z,35.10
2024-04-30T12:29:29.331Z,34.70
2024-04-30T12:31:56.511Z,34.50
2024-04-30T12:34:23.638Z,33.50
2024-04-30T12:36:50.842Z,34.70
2024-04-30T12:39:17.941Z,32.20
2024-04-30T12:41:45.583Z,31.90
2024-04-30T12:44:14.847Z,33.00
2024-04-30T12:46:45.846Z,32.80
2024-04-30T12:49:13.081Z,34.90
2024-04-30T12:51:40.234Z,32.30
2024-04-30T12:54:08.016Z,32.90
2024-04-30T12:56:35.115Z,34.00
2024-04-30T12:59:04.766Z,33.90
2024-04-30T13:01:31.936Z,34.90
2024-04-30T13:03:59.059Z,35.50
2024-04-30T13:06:26.125Z,34.20
2024-04-30T13:08:53.211Z,36.90
2024-04-30T13:11:20.379Z,36.90
2024-04-30T13:13:47.561Z,38.00
2024-04-30T13:16:14.664Z,36.40
2024-04-30T13:18:52.136Z,38.30
2024-04-30T13:21:19.507Z,39.00
2024-04-30T13:23:46.604Z,37.10
2024-04-30T13:26:14.156Z,36.40
2024-04-30T13:28:41.305Z,36.20
2024-04-30T13:31:08.647Z,35.80
2024-04-30T13:33:36.118Z,37.10
2024-04-30T13:36:03.429Z,36.60
2024-04-30T13:38:30.502Z,36.50
2024-04-30T13:40:57.652Z,37.00
2024-04-30T13:43:24.795Z,37.20
2024-04-30T13:45:52.820Z,36.60
2024-04-30T13:48:21.127Z,37.00
2024-04-30T13:50:48.248Z,36.10
2024-04-30T13:53:15.293Z,35.80
2024-04-30T13:55:42.501Z,34.80
2024-04-30T13:58:09.772Z,34.10
2024-04-30T14:00:36.963Z,34.60
2024-04-30T14:03:04.466Z,34.80
2024-04-30T14:05:32.671Z,34.40
2024-04-30T14:08:00.728Z,33.10
2024-04-30T14:10:28.017Z,33.80
2024-04-30T14:12:55.155Z,34.40
2024-04-30T14:15:22.288Z,34.00
2024-04-30T14:17:49.671Z,33.90
2024-04-30T14:20:16.750Z,34.70
2024-04-30T14:22:43.998Z,36.50
2024-04-30T14:25:11.216Z,35.80
2024-04-30T14:27:38.459Z,35.60
2024-04-30T14:30:06.446Z,35.40
2024-04-30T14:32:33.676Z,36.10
2024-04-30T14:35:01.140Z,36.30
2024-04-30T14:37:28.742Z,36.70
2024-04-30T14:39:55.893Z,37.00
2024-04-30T14:42:23.705Z,38.90
2024-04-30T14:44:52.063Z,37.80
2024-04-30T14:47:22.730Z,36.40
2024-04-30T14:49:50.481Z,36.40
2024-04-30T14:52:17.853Z,36.00
2024-04-30T14:54:45.052Z,36.30
2024-04-30T14:57:12.084Z,35.50
2024-04-30T14:59:39.130Z,36.50
2024-04-30T15:02:06.836Z,36.20
2024-04-30T15:04:34.169Z,32.10
2024-04-30T15:07:01.292Z,32.30
2024-04-30T15:09:31.549Z,32.20
2024-04-30T15:12:00.814Z,33.00
2024-04-30T15:14:28.511Z,32.20
2024-04-30T15:16:55.735Z,33.00
2024-04-30T15:19:22.935Z,31.50
2024-04-30T15:21:50.625Z,31.60
2024-04-30T15:24:17.781Z,31.10
2024-04-30T15:26:45.086Z,31.70
2024-04-30T15:29:13.225Z,30.80
2024-04-30T15:31:40.382Z,30.50
2024-04-30T15:34:07.923Z,30.60
2024-04-30T15:36:35.075Z,30.80
2024-04-30T15:39:02.194Z,30.20
2024-04-30T15:41:29.281Z,30.80
2024-04-30T15:43:56.330Z,30.50
2024-04-30T15:46:24.044Z,30.20
2024-04-30T15:48:52.701Z,30.00
2024-04-30T15:51:20.152Z,30.00
2024-04-30T15:53:47.219Z,30.20
2024-04-30T15:56:19.489Z,30.70
2024-04-30T15:58:48.581Z,31.40
2024-04-30T16:01:16.375Z,30.90
2024-04-30T16:03:44.629Z,31.10
2024-04-30T16:06:12.076Z,31.10
2024-04-30T16:08:39.198Z,31.70
2024-04-30T16:11:10.212Z,31.70
2024-04-30T16:13:39.994Z,32.20
2024-04-30T16:16:15.417Z,31.40
2024-04-30T16:18:46.950Z,31.60
2024-04-30T16:21:15.133Z,31.90
2024-04-30T16:23:43.724Z,31.90
2024-04-30T16:26:11.408Z,32.00
2024-04-30T16:28:42.921Z,31.40
2024-04-30T16:31:11.338Z,31.90
2024-04-30T16:33:39.043Z,31.50
2024-04-30T16:36:07.447Z,32.50
2024-04-30T16:38:34.697Z,33.00
2024-04-30T16:41:03.217Z,33.30
2024-04-30T16:43:30.302Z,33.20
2024-04-30T16:45:57.444Z,34.70
2024-04-30T16:48:25.047Z,35.20
2024-04-30T16:50:52.258Z,36.00
2024-04-30T16:53:19.390Z,36.60
2024-04-30T16:55:46.538Z,37.70
2024-04-30T16:58:13.620Z,38.20
2024-04-30T17:00:42.667Z,38.70
2024-04-30T17:03:11.561Z,39.30
2024-04-30T17:05:39.112Z,39.90
2024-04-30T17:08:06.958Z,40.00
2024-04-30T17:10:34.257Z,40.30
2024-04-30T17:13:01.423Z,40.70
2024-04-30T17:15:28.568Z,41.40
2024-04-30T17:17:56.074Z,41.60
2024-04-30T17:20:23.860Z,41.90
2024-04-30T17:22:50.903Z,42.20
2024-04-30T17:25:18.012Z,42.10
2024-04-30T17:27:45.183Z,42.60
2024-04-30T17:30:12.478Z,43.30
2024-04-30T17:32:41.853Z,43.50
2024-04-30T17:35:09.042Z,44.10
2024-04-30T17:37:36.209Z,44.50
2024-04-30T17:40:03.686Z,44.60
2024-04-30T17:42:31.765Z,44.50
2024-04-30T17:44:58.862Z,44.80
2024-04-30T17:47:26.048Z,45.30
2024-04-30T17:49:53.234Z,45.30
2024-04-30T17:52:20.309Z,46.00
2024-04-30T17:54:47.493Z,45.70
2024-04-30T17:57:14.696Z,46.20
2024-04-30T17:59:41.728Z,46.50
2024-04-30T18:02:08.851Z,47.10
2024-04-30T18:04:36.011Z,47.30
2024-04-30T18:07:03.335Z,47.40
2024-04-30T18:09:30.572Z,48.00
2024-04-30T18:11:57.797Z,48.20
2024-04-30T18:14:24.945Z,49.00
2024-04-30T18:16:52.145Z,49.30
2024-04-30T18:19:19.397Z,49.40
2024-04-30T18:21:46.522Z,49.60
2024-04-30T18:24:13.641Z,50.10
2024-04-30T18:26:42.900Z,51.10
2024-04-30T18:29:10.767Z,50.90
2024-04-30T18:31:37.950Z,50.80
2024-04-30T18:34:05.288Z,50.80
2024-04-30T18:36:37.721Z,51.10
2024-04-30T18:39:05.442Z,51.60
2024-04-30T18:41:32.845Z,51.70
2024-04-30T18:44:00.118Z,52.10
2024-04-30T18:46:27.519Z,52.70
2024-04-30T18:48:55.018Z,53.10
2024-04-30T18:51:22.526Z,53.50
2024-04-30T18:53:50.114Z,54.00
2024-04-30T18:56:18.369Z,54.50
2024-04-30T18:58:46.670Z,55.00
2024-04-30T19:01:15.427Z,55.60
2024-04-30T19:03:43.255Z,55.50
2024-04-30T19:06:11.539Z,55.80
2024-04-30T19:08:39.699Z,57.10
2024-04-30T19:11:08.859Z,57.50
2024-04-30T19:13:36.463Z,58.20
2024-04-30T19:16:05.239Z,58.40
2024-04-30T19:18:33.362Z,58.10
2024-04-30T19:21:03.688Z,58.20
2024-04-30T19:23:34.578Z,58.50
2024-04-30T19:26:02.583Z,59.00
2024-04-30T19:28:29.763Z,59.20
2024-04-30T19:30:57.146Z,59.30
2024-04-30T19:33:24.709Z,59.60
2024-04-30T19:35:52.168Z,59.90
2024-04-30T19:38:19.247Z,60.10
2024-04-30T19:40:46.464Z,60.20
2024-04-30T19:43:16.505Z,61.80
2024-04-30T19:45:44.195Z,61.30
2024-04-30T19:48:16.788Z,62.10
2024-04-30T19:50:46.184Z,62.70
2024-04-30T19:53:13.383Z,63.10
2024-04-30T19:55:41.402Z,63.50
2024-04-30T19:58:09.750Z,64.30
2024-04-30T20:00:37.135Z,65.90
2024-04-30T20:03:04.764Z,66.10
2024-04-30T20:05:32.041Z,66.90
2024-04-30T20:08:00.266Z,67.40
2024-04-30T20:10:27.470Z,68.00
2024-04-30T20:12:55.181Z,68.50
2024-04-30T20:15:22.516Z,68.70
2024-04-30T20:17:49.748Z,69.10
2024-04-30T20:20:16.955Z,69.90
2024-04-30T20:22:45.963Z,70.80
2024-04-30T20:25:14.142Z,71.60
2024-04-30T20:27:42.153Z,72.10
2024-04-30T20:30:11.934Z,72.60
2024-04-30T20:32:40.752Z,73.20
2024-04-30T20:35:08.781Z,73.80
2024-04-30T20:37:35.915Z,74.60
2024-04-30T20:40:03.691Z,75.40
2024-04-30T20:42:30.982Z,76.10
2024-04-30T20:44:58.194Z,76.00
2024-04-30T20:47:25.815Z,75.90
2024-04-30T20:49:53.253Z,76.60
2024-04-30T20:52:20.683Z,77.40
2024-04-30T20:54:47.793Z,77.90
2024-04-30T20:57:14.932Z,78.40
2024-04-30T20:59:42.123Z,79.00
2024-04-30T21:02:10.043Z,79.70
2024-04-30T21:04:37.699Z,80.40
2024-04-30T21:07:05.181Z,81.10
2024-04-30T21:09:32.836Z,81.70
2024-04-30T21:12:00.114Z,82.40
2024-04-30T21:14:27.588Z,83.20
2024-04-30T21:16:54.772Z,83.60
2024-04-30T21:19:22.155Z,85.80
2024-04-30T21:21:49.404Z,85.10
2024-04-30T21:24:16.505Z,86.20
2024-04-30T21:26:43.746Z,85.70
2024-04-30T21:29:10.925Z,86.30
2024-04-30T21:31:38.207Z,86.70
2024-04-30T21:34:05.376Z,87.20
2024-04-30T21:36:33.305Z,87.90
2024-04-30T21:39:00.411Z,88.50
2024-04-30T21:41:27.644Z,88.80
2024-04-30T21:43:55.094Z,89.70
2024-04-30T21:46:22.126Z,90.30
2024-04-30T21:48:49.301Z,90.30
2024-04-30T21:51:22.376Z,90.40
2024-04-30T21:53:49.731Z,90.60
2024-04-30T21:56:17.464Z,90.80
2024-04-30T21:58:44.876Z,92.10
2024-04-30T22:01:13.898Z,91.50
2024-04-30T22:03:41.487Z,92.60
2024-04-30T22:06:08.859Z,91.70
2024-04-30T22:08:39.263Z,92.00
2024-04-30T22:11:06.985Z,92.60
2024-04-30T22:13:34.554Z,92.60
2024-04-30T22:16:04.936Z,92.90
2024-04-30T22:18:32.919Z,93.20
2024-04-30T22:21:00.564Z,93.70
2024-04-30T22:23:29.499Z,94.20
2024-04-30T22:25:56.599Z,94.40
2024-04-30T22:28:23.639Z,94.30
2024-04-30T22:30:50.744Z,94.00
2024-04-30T22:33:18.056Z,94.30
2024-04-30T22:35:45.170Z,94.50
2024-04-30T22:38:12.350Z,95.10
2024-04-30T22:40:39.443Z,94.80
2024-04-30T22:43:06.613Z,94.90
2024-04-30T22:45:33.808Z,95.10
2024-04-30T22:48:01.009Z,95.20
2024-04-30T22:50:28.175Z,95.40
2024-04-30T22:52:55.310Z,95.20
2024-04-30T22:55:22.393Z,95.70
2024-04-30T22:57:49.540Z,95.70
2024-04-30T23:00:17.397Z,96.10
2024-04-30T23:02:44.527Z,96.00
2024-04-30T23:05:13.307Z,96.20
2024-04-30T23:07:40.871Z,96.70
2024-04-30T23:10:08.379Z,96.40
2024-04-30T23:12:35.787Z,96.50
2024-04-30T23:15:03.516Z,96.70
2024-04-30T23:17:30.657Z,96.90
2024-04-30T23:19:57.888Z,97.00
2024-04-30T23:22:24.993Z,96.90
2024-04-30T23:24:52.147Z,97.30
2024-04-30T23:27:22.050Z,97.50
2024-04-30T23:29:49.369Z,97.40
2024-04-30T23:32:17.114Z,97.80
2024-04-30T23:34:44.376Z,98.30
2024-04-30T23:37:11.480Z,97.60
2024-04-30T23:39:38.897Z,97.80
2024-04-30T23:42:08.851Z,97.90
2024-04-30T23:44:36.506Z,98.00
2024-04-30T23:47:04.291Z,98.20
2024-04-30T23:49:31.495Z,98.20
2024-04-30T23:51:58.671Z,98.80
2024-04-30T23:54:26.862Z,98.40
2024-04-30T23:56:57.037Z,99.00
2024-04-30T23:59:24.136Z,98.90
